createdAt,value
2023-05-19T00:00:38.922Z,10.40
2023-05-19T00:01:38.959Z,10.41
2023-05-19T00:02:40.028Z,10.38
2023-05-19T00:03:38.957Z,10.34
2023-05-19T00:04:38.939Z,10.37
2023-05-19T00:05:38.921Z,10.42
2023-05-19T00:06:38.909Z,10.33
2023-05-19T00:07:38.922Z,10.44
2023-05-19T00:08:38.960Z,10.38
2023-05-19T00:09:38.909Z,10.38
2023-05-19T00:10:38.868Z,10.34
2023-05-19T00:11:38.851Z,10.41
2023-05-19T00:12:38.845Z,10.49
2023-05-19T00:13:38.861Z,10.44
2023-05-19T00:14:38.844Z,10.46
2023-05-19T00:15:38.838Z,10.37
2023-05-19T00:16:38.818Z,10.42
2023-05-19T00:17:38.880Z,10.37
2023-05-19T00:18:38.918Z,10.37
2023-05-19T00:19:38.807Z,10.41
2023-05-19T00:20:38.802Z,10.48
2023-05-19T00:21:38.796Z,10.38
2023-05-19T00:22:38.796Z,10.34
2023-05-19T00:23:38.794Z,10.41
2023-05-19T00:24:39.604Z,10.40
2023-05-19T00:25:38.782Z,10.41
2023-05-19T00:26:38.750Z,10.28
2023-05-19T00:27:38.795Z,10.38
2023-05-19T00:28:38.802Z,10.37
2023-05-19T00:29:38.728Z,10.25
2023-05-19T00:30:38.721Z,10.25
2023-05-19T00:31:38.764Z,10.34
2023-05-19T00:32:38.734Z,10.31
2023-05-19T00:33:38.726Z,10.26
2023-05-19T00:34:38.714Z,10.19
2023-05-19T00:35:38.732Z,10.22
2023-05-19T00:36:38.744Z,10.16
2023-05-19T00:37:38.676Z,10.26
2023-05-19T00:38:38.699Z,10.13
2023-05-19T00:39:38.666Z,10.10
2023-05-19T00:40:38.656Z,10.13
2023-05-19T00:41:38.665Z,10.07
2023-05-19T00:42:38.716Z,10.12
2023-05-19T00:43:38.623Z,10.13
2023-05-19T00:44:38.628Z,10.13
2023-05-19T00:45:38.623Z,10.12
2023-05-19T00:46:38.927Z,10.16
2023-05-19T00:47:38.682Z,10.01
2023-05-19T00:48:38.701Z,9.98
2023-05-19T00:49:38.577Z,10.02
2023-05-19T00:50:38.592Z,9.98
2023-05-19T00:51:38.562Z,9.99
2023-05-19T00:52:38.573Z,9.86
2023-05-19T00:53:38.553Z,9.89
2023-05-19T00:54:38.534Z,9.86
2023-05-19T00:55:38.576Z,9.86
2023-05-19T00:56:38.525Z,9.83
2023-05-19T00:57:38.521Z,9.74
2023-05-19T00:58:38.524Z,9.64
2023-05-19T00:59:38.505Z,9.55
2023-05-19T01:00:38.781Z,9.59
2023-05-19T01:01:38.524Z,9.62
2023-05-19T01:02:38.548Z,9.61
2023-05-19T01:03:38.588Z,9.55
2023-05-19T01:04:39.518Z,9.50
2023-05-19T01:05:38.497Z,9.55
2023-05-19T01:06:38.460Z,9.58
2023-05-19T01:07:38.453Z,9.48
2023-05-19T01:08:38.452Z,9.36
2023-05-19T01:09:38.508Z,9.39
2023-05-19T01:10:38.464Z,9.28
2023-05-19T01:11:38.424Z,9.28
2023-05-19T01:12:38.419Z,9.10
2023-05-19T01:13:40.345Z,9.16
2023-05-19T01:14:38.426Z,8.94
2023-05-19T01:15:38.504Z,8.92
2023-05-19T01:16:38.542Z,8.85
2023-05-19T01:17:38.426Z,8.82
2023-05-19T01:18:38.394Z,8.87
2023-05-19T01:19:38.382Z,8.76
2023-05-19T01:20:38.441Z,8.67
2023-05-19T01:21:38.361Z,8.64
2023-05-19T01:22:38.354Z,8.69
2023-05-19T01:23:38.361Z,8.67
2023-05-19T01:24:38.361Z,8.53
2023-05-19T01:25:38.333Z,8.60
2023-05-19T01:26:38.323Z,8.53
2023-05-19T01:27:38.332Z,8.52
2023-05-19T01:28:38.337Z,8.61
2023-05-19T01:29:38.308Z,8.70
2023-05-19T01:30:38.313Z,8.66
2023-05-19T01:31:38.347Z,8.73
2023-05-19T01:32:38.380Z,8.55
2023-05-19T01:33:38.305Z,8.45
2023-05-19T01:34:38.261Z,8.49
2023-05-19T01:35:38.264Z,8.55
2023-05-19T01:36:38.299Z,8.45
2023-05-19T01:37:38.273Z,8.49
2023-05-19T01:38:38.272Z,8.52
2023-05-19T01:39:38.263Z,8.42
2023-05-19T01:40:38.235Z,8.49
2023-05-19T01:41:38.225Z,8.38
2023-05-19T01:42:38.260Z,8.48
2023-05-19T01:43:38.209Z,8.36
2023-05-19T01:44:38.200Z,8.06
2023-05-19T01:45:38.234Z,7.77
2023-05-19T01:46:38.180Z,7.56
2023-05-19T01:47:38.280Z,7.54
2023-05-19T01:48:38.176Z,7.45
2023-05-19T01:49:38.163Z,7.45
2023-05-19T01:50:38.189Z,7.47
2023-05-19T01:51:38.161Z,7.40
2023-05-19T01:52:39.080Z,7.32
2023-05-19T01:53:38.143Z,7.24
2023-05-19T01:54:38.133Z,7.33
2023-05-19T01:55:38.127Z,7.11
2023-05-19T01:56:38.174Z,6.87
2023-05-19T01:57:38.149Z,6.74
2023-05-19T01:58:38.097Z,6.64
2023-05-19T01:59:38.103Z,6.64
2023-05-19T02:00:38.093Z,6.63
2023-05-19T02:01:38.210Z,6.56
2023-05-19T02:02:38.089Z,6.52
2023-05-19T02:03:38.077Z,6.45
2023-05-19T02:04:38.112Z,6.49
2023-05-19T02:05:38.073Z,6.30
2023-05-19T02:06:38.232Z,6.31
2023-05-19T02:07:38.386Z,6.20
2023-05-19T02:08:38.043Z,6.08
2023-05-19T02:09:38.033Z,6.09
2023-05-19T02:10:38.024Z,6.14
2023-05-19T02:11:38.057Z,6.19
2023-05-19T02:12:38.017Z,6.08
2023-05-19T02:13:38.013Z,6.16
2023-05-19T02:14:37.983Z,6.12
2023-05-19T02:15:38.026Z,6.08
2023-05-19T02:16:38.004Z,6.14
2023-05-19T02:17:37.995Z,6.28
2023-05-19T02:18:37.966Z,6.24
2023-05-19T02:19:37.980Z,6.38
2023-05-19T02:20:37.965Z,6.49
2023-05-19T02:21:37.946Z,6.45
2023-05-19T02:22:37.963Z,6.39
2023-05-19T02:23:37.932Z,6.17
2023-05-19T02:24:38.062Z,6.22
2023-05-19T02:25:37.950Z,6.07
2023-05-19T02:26:37.906Z,6.02
2023-05-19T02:27:37.912Z,6.11
2023-05-19T02:28:37.896Z,6.09
2023-05-19T02:29:37.924Z,6.07
2023-05-19T02:30:37.883Z,5.99
2023-05-19T02:31:37.936Z,6.09
2023-05-19T02:32:37.969Z,5.99
2023-05-19T02:33:37.874Z,5.93
2023-05-19T02:34:37.875Z,5.98
2023-05-19T02:35:37.837Z,5.83
2023-05-19T02:36:37.847Z,5.83
2023-05-19T02:37:37.814Z,5.80
2023-05-19T02:38:37.834Z,5.73
2023-05-19T02:39:37.881Z,5.75
2023-05-19T02:40:37.810Z,5.64
2023-05-19T02:41:37.875Z,5.54
2023-05-19T02:42:37.822Z,5.53
2023-05-19T02:43:37.807Z,5.54
2023-05-19T02:44:37.798Z,5.61
2023-05-19T02:45:37.786Z,5.44
2023-05-19T02:46:37.827Z,5.23
2023-05-19T02:47:37.783Z,5.29
2023-05-19T02:48:37.779Z,5.33
2023-05-19T02:49:37.748Z,5.41
2023-05-19T02:50:37.747Z,5.48
2023-05-19T02:51:37.781Z,5.50
2023-05-19T02:52:37.757Z,5.48
2023-05-19T02:53:37.752Z,5.38
2023-05-19T02:54:37.716Z,5.18
2023-05-19T02:55:37.717Z,5.30
2023-05-19T02:56:37.696Z,5.26
2023-05-19T02:57:37.719Z,5.39
2023-05-19T02:58:37.675Z,5.25
2023-05-19T02:59:37.690Z,5.28
2023-05-19T03:00:37.721Z,5.18
2023-05-19T03:01:37.820Z,5.12
2023-05-19T03:02:37.725Z,5.10
2023-05-19T03:03:37.770Z,5.14
2023-05-19T03:04:37.646Z,5.02
2023-05-19T03:05:37.625Z,5.00
2023-05-19T03:06:37.661Z,5.12
2023-05-19T03:07:37.645Z,5.15
2023-05-19T03:08:38.826Z,5.14
2023-05-19T03:09:37.605Z,5.29
2023-05-19T03:10:37.645Z,5.23
2023-05-19T03:11:37.606Z,5.12
2023-05-19T03:12:37.642Z,5.15
2023-05-19T03:13:37.575Z,5.12
2023-05-19T03:14:37.562Z,5.17
2023-05-19T03:15:37.572Z,5.02
2023-05-19T03:16:37.701Z,4.92
2023-05-19T03:17:37.582Z,5.05
2023-05-19T03:18:37.578Z,5.07
2023-05-19T03:19:37.528Z,5.02
2023-05-19T03:20:38.992Z,4.92
2023-05-19T03:21:37.548Z,4.86
2023-05-19T03:22:37.511Z,5.02
2023-05-19T03:23:37.508Z,4.94
2023-05-19T03:24:37.505Z,5.05
2023-05-19T03:25:37.505Z,5.18
2023-05-19T03:26:37.486Z,4.94
2023-05-19T03:27:37.481Z,4.87
2023-05-19T03:28:37.462Z,5.00
2023-05-19T03:29:37.468Z,5.18
2023-05-19T03:30:37.483Z,5.11
2023-05-19T03:31:37.446Z,5.05
2023-05-19T03:32:37.515Z,4.99
2023-05-19T03:33:37.543Z,4.97
2023-05-19T03:34:37.436Z,4.84
2023-05-19T03:35:37.436Z,4.94
2023-05-19T03:36:37.424Z,4.96
2023-05-19T03:37:37.407Z,4.80
2023-05-19T03:38:37.411Z,4.71
2023-05-19T03:39:37.417Z,4.96
2023-05-19T03:40:37.408Z,4.97
2023-05-19T03:41:37.382Z,4.99
2023-05-19T03:42:37.370Z,5.05
2023-05-19T03:43:37.384Z,4.99
2023-05-19T03:44:37.388Z,5.07
2023-05-19T03:45:37.380Z,5.12
2023-05-19T03:46:37.356Z,5.12
2023-05-19T03:47:37.382Z,5.11
2023-05-19T03:48:37.331Z,5.17
2023-05-19T03:49:37.341Z,5.10
2023-05-19T03:50:37.322Z,4.99
2023-05-19T03:51:37.310Z,4.92
2023-05-19T03:52:37.362Z,4.87
2023-05-19T03:53:37.408Z,4.89
2023-05-19T03:54:37.294Z,4.93
2023-05-19T03:55:37.308Z,5.05
2023-05-19T03:56:37.291Z,4.97
2023-05-19T03:57:37.320Z,5.10
2023-05-19T03:58:37.280Z,5.07
2023-05-19T03:59:37.271Z,5.07
2023-05-19T04:00:37.242Z,5.15
2023-05-19T04:01:37.250Z,5.15
2023-05-19T04:02:37.360Z,5.12
2023-05-19T04:03:37.274Z,5.08
2023-05-19T04:04:37.266Z,4.93
2023-05-19T04:05:37.206Z,4.90
2023-05-19T04:06:37.203Z,5.04
2023-05-19T04:07:37.252Z,5.14
2023-05-19T04:08:37.205Z,5.08
2023-05-19T04:09:37.176Z,5.23
2023-05-19T04:10:37.195Z,5.25
2023-05-19T04:11:37.173Z,5.14
2023-05-19T04:12:37.193Z,5.17
2023-05-19T04:13:37.165Z,5.23
2023-05-19T04:14:37.166Z,5.23
2023-05-19T04:15:37.191Z,5.15
2023-05-19T04:16:37.175Z,4.99
2023-05-19T04:17:37.234Z,4.94
2023-05-19T04:18:37.209Z,4.86
2023-05-19T04:19:37.126Z,5.08
2023-05-19T04:20:37.178Z,5.07
2023-05-19T04:21:37.129Z,5.12
2023-05-19T04:22:37.090Z,5.14
2023-05-19T04:23:37.125Z,5.23
2023-05-19T04:24:37.069Z,5.25
2023-05-19T04:25:37.081Z,5.38
2023-05-19T04:26:37.074Z,5.28
2023-05-19T04:27:37.114Z,5.29
2023-05-19T04:28:37.052Z,5.20
2023-05-19T04:29:37.039Z,5.25
2023-05-19T04:30:37.048Z,5.21
2023-05-19T04:31:37.246Z,5.26
2023-05-19T04:32:37.041Z,5.12
2023-05-19T04:33:37.011Z,5.20
2023-05-19T04:34:37.019Z,5.30
2023-05-19T04:35:37.022Z,5.30
2023-05-19T04:36:37.056Z,5.25
2023-05-19T04:37:36.977Z,5.28
2023-05-19T04:38:36.984Z,5.23
2023-05-19T04:39:37.007Z,5.17
2023-05-19T04:40:36.991Z,5.20
2023-05-19T04:41:36.945Z,5.25
2023-05-19T04:42:36.944Z,5.26
2023-05-19T04:43:36.943Z,5.38
2023-05-19T04:44:36.933Z,5.47
2023-05-19T04:45:36.933Z,5.48
2023-05-19T04:46:36.969Z,5.47
2023-05-19T04:47:37.040Z,5.56
2023-05-19T04:48:36.895Z,5.47
2023-05-19T04:49:36.903Z,5.53
2023-05-19T04:50:37.929Z,5.57
2023-05-19T04:51:36.896Z,5.83
2023-05-19T04:52:36.905Z,5.83
2023-05-19T04:53:36.875Z,5.91
2023-05-19T04:54:36.883Z,6.12
2023-05-19T04:55:36.848Z,6.28
2023-05-19T04:56:36.856Z,6.46
2023-05-19T04:57:36.837Z,6.51
2023-05-19T04:58:36.882Z,6.59
2023-05-19T04:59:36.852Z,6.72
2023-05-19T05:00:36.817Z,6.70
2023-05-19T05:01:36.829Z,6.87
2023-05-19T05:02:36.937Z,6.97
2023-05-19T05:03:36.895Z,7.05
2023-05-19T05:04:36.806Z,7.11
2023-05-19T05:05:36.804Z,7.29
2023-05-19T05:06:36.774Z,7.38
2023-05-19T05:07:36.751Z,7.42
2023-05-19T05:08:36.781Z,7.53
2023-05-19T05:09:36.740Z,7.48
2023-05-19T05:10:36.743Z,7.58
2023-05-19T05:11:36.731Z,7.79
2023-05-19T05:12:36.739Z,7.77
2023-05-19T05:13:36.729Z,7.85
2023-05-19T05:14:36.710Z,7.91
2023-05-19T05:15:36.690Z,8.00
2023-05-19T05:16:36.698Z,8.08
2023-05-19T05:17:36.749Z,8.10
2023-05-19T05:18:36.735Z,8.08
2023-05-19T05:19:36.682Z,8.23
2023-05-19T05:20:36.683Z,8.10
2023-05-19T05:21:36.663Z,8.16
2023-05-19T05:22:36.691Z,8.15
2023-05-19T05:23:37.630Z,8.18
2023-05-19T05:24:36.658Z,8.24
2023-05-19T05:25:36.622Z,8.23
2023-05-19T05:26:36.612Z,8.23
2023-05-19T05:27:36.683Z,8.30
2023-05-19T05:28:36.601Z,8.24
2023-05-19T05:29:36.591Z,8.31
2023-05-19T05:30:36.633Z,8.34
2023-05-19T05:31:36.635Z,8.36
2023-05-19T05:32:36.793Z,8.42
2023-05-19T05:33:36.611Z,8.42
2023-05-19T05:34:36.823Z,8.48
2023-05-19T05:35:36.546Z,8.49
2023-05-19T05:36:36.579Z,8.64
2023-05-19T05:37:36.546Z,8.74
2023-05-19T05:38:36.551Z,8.60
2023-05-19T05:39:36.540Z,8.78
2023-05-19T05:40:36.541Z,8.74
2023-05-19T05:41:36.557Z,8.87
2023-05-19T05:42:36.517Z,8.81
2023-05-19T05:43:36.499Z,8.85
2023-05-19T05:44:36.491Z,8.87
2023-05-19T05:45:36.583Z,8.94
2023-05-19T05:46:36.533Z,8.85
2023-05-19T05:47:36.493Z,8.85
2023-05-19T05:48:36.476Z,8.89
2023-05-19T05:49:36.533Z,8.89
2023-05-19T05:50:36.466Z,8.92
2023-05-19T05:51:36.461Z,9.04
2023-05-19T05:52:36.473Z,9.25
2023-05-19T05:53:36.440Z,9.29
2023-05-19T05:54:36.443Z,9.29
2023-05-19T05:55:36.463Z,9.36
2023-05-19T05:56:36.410Z,9.31
2023-05-19T05:57:36.419Z,9.46
2023-05-19T05:58:37.374Z,9.48
2023-05-19T05:59:37.413Z,9.50
2023-05-19T06:00:36.602Z,9.50
2023-05-19T06:01:36.381Z,9.44
2023-05-19T06:02:36.423Z,9.51
2023-05-19T06:03:36.412Z,9.58
2023-05-19T06:04:36.385Z,9.37
2023-05-19T06:05:36.458Z,9.50
2023-05-19T06:06:36.369Z,9.46
2023-05-19T06:07:36.340Z,9.39
2023-05-19T06:08:36.378Z,9.29
2023-05-19T06:09:37.237Z,9.34
2023-05-19T06:10:36.541Z,9.44
2023-05-19T06:11:36.347Z,9.40
2023-05-19T06:12:36.303Z,9.29
2023-05-19T06:13:36.333Z,9.36
2023-05-19T06:14:36.295Z,9.29
2023-05-19T06:15:36.309Z,9.32
2023-05-19T06:16:36.331Z,9.22
2023-05-19T06:17:36.334Z,9.36
2023-05-19T06:18:36.330Z,9.31
2023-05-19T06:19:36.252Z,9.41
2023-05-19T06:20:36.373Z,9.32
2023-05-19T06:21:36.241Z,9.43
2023-05-19T06:22:36.301Z,9.43
2023-05-19T06:23:36.292Z,9.47
2023-05-19T06:24:38.698Z,9.61
2023-05-19T06:25:36.238Z,9.64
2023-05-19T06:26:36.222Z,9.66
2023-05-19T06:27:36.209Z,9.66
2023-05-19T06:28:36.203Z,9.66
2023-05-19T06:29:36.223Z,9.68
2023-05-19T06:30:36.203Z,9.72
2023-05-19T06:31:36.184Z,9.82
2023-05-19T06:32:36.207Z,9.74
2023-05-19T06:33:36.181Z,9.91
2023-05-19T06:34:36.181Z,9.74
2023-05-19T06:35:36.157Z,9.83
2023-05-19T06:36:36.162Z,9.94
2023-05-19T06:37:36.155Z,9.84
2023-05-19T06:38:36.116Z,9.89
2023-05-19T06:39:36.118Z,10.09
2023-05-19T06:40:36.163Z,10.22
2023-05-19T06:41:36.133Z,10.33
2023-05-19T06:42:36.141Z,10.59
2023-05-19T06:43:36.093Z,10.71
2023-05-19T06:44:36.088Z,10.76
2023-05-19T06:45:36.099Z,10.87
2023-05-19T06:46:36.128Z,11.00
2023-05-19T06:47:36.210Z,11.10
2023-05-19T06:48:36.059Z,11.23
2023-05-19T06:49:36.080Z,11.44
2023-05-19T06:50:36.049Z,11.57
2023-05-19T06:51:36.069Z,11.57
2023-05-19T06:52:36.022Z,11.65
2023-05-19T06:53:36.043Z,11.84
2023-05-19T06:54:36.044Z,11.94
2023-05-19T06:55:43.941Z,12.17
2023-05-19T06:56:38.051Z,12.17
2023-05-19T06:57:35.989Z,12.28
2023-05-19T06:58:35.985Z,12.29
2023-05-19T06:59:35.986Z,12.54
2023-05-19T07:00:36.266Z,12.54
2023-05-19T07:01:36.011Z,12.54
2023-05-19T07:02:36.025Z,12.65
2023-05-19T07:03:36.061Z,12.67
2023-05-19T07:04:35.936Z,12.67
2023-05-19T07:05:35.958Z,12.70
2023-05-19T07:06:35.933Z,12.70
2023-05-19T07:07:35.924Z,12.75
2023-05-19T07:08:35.920Z,12.70
2023-05-19T07:09:35.925Z,12.70
2023-05-19T07:10:35.910Z,12.68
2023-05-19T07:11:35.892Z,12.83
2023-05-19T07:12:35.874Z,12.98
2023-05-19T07:13:35.871Z,13.05
2023-05-19T07:14:35.888Z,13.18
2023-05-19T07:15:35.892Z,13.27
2023-05-19T07:16:35.896Z,13.23
2023-05-19T07:17:35.948Z,13.33
2023-05-19T07:18:35.858Z,13.31
2023-05-19T07:19:35.936Z,13.28
2023-05-19T07:20:35.830Z,13.23
2023-05-19T07:21:35.847Z,13.28
2023-05-19T07:22:35.857Z,13.31
2023-05-19T07:23:35.838Z,13.41
2023-05-19T07:24:35.827Z,13.27
2023-05-19T07:25:35.783Z,13.23
2023-05-19T07:26:35.784Z,13.37
2023-05-19T07:27:35.769Z,13.52
2023-05-19T07:28:35.811Z,13.71
2023-05-19T07:29:35.754Z,13.85
2023-05-19T07:30:35.793Z,13.87
2023-05-19T07:31:35.772Z,13.81
2023-05-19T07:32:35.768Z,13.96
2023-05-19T07:33:35.795Z,14.08
2023-05-19T07:34:35.739Z,14.17
2023-05-19T07:35:35.725Z,14.23
2023-05-19T07:36:35.710Z,14.20
2023-05-19T07:37:35.713Z,14.29
2023-05-19T07:38:35.737Z,14.22
2023-05-19T07:39:35.712Z,14.22
2023-05-19T07:40:35.689Z,14.20
2023-05-19T07:41:36.536Z,14.35
2023-05-19T07:42:36.692Z,14.48
2023-05-19T07:43:35.716Z,14.53
2023-05-19T07:44:35.655Z,14.69
2023-05-19T07:45:35.659Z,14.65
2023-05-19T07:46:35.732Z,14.63
2023-05-19T07:47:35.661Z,14.73
2023-05-19T07:48:35.619Z,14.77
2023-05-19T07:49:35.613Z,14.92
2023-05-19T07:50:35.646Z,15.00
2023-05-19T07:51:35.626Z,15.15
2023-05-19T07:52:35.598Z,15.15
2023-05-19T07:53:35.600Z,15.35
2023-05-19T07:54:35.585Z,15.43
2023-05-19T07:55:35.602Z,15.39
2023-05-19T07:56:35.792Z,15.40
2023-05-19T07:57:35.584Z,15.46
2023-05-19T07:58:35.547Z,15.36
2023-05-19T07:59:35.569Z,15.35
2023-05-19T08:00:35.635Z,15.39
2023-05-19T08:01:35.548Z,15.33
2023-05-19T08:02:35.609Z,15.36
2023-05-19T08:03:35.797Z,15.47
2023-05-19T08:04:35.640Z,15.64
2023-05-19T08:05:35.581Z,15.67
2023-05-19T08:06:35.507Z,15.84
2023-05-19T08:07:35.482Z,15.92
2023-05-19T08:08:35.481Z,15.91
2023-05-19T08:09:35.499Z,15.98
2023-05-19T08:10:35.733Z,16.05
2023-05-19T08:11:35.463Z,16.09
2023-05-19T08:12:35.519Z,16.05
2023-05-19T08:13:35.468Z,16.17
2023-05-19T08:14:35.441Z,16.23
2023-05-19T08:15:35.571Z,16.16
2023-05-19T08:16:35.424Z,16.00
2023-05-19T08:17:35.630Z,16.00
2023-05-19T08:18:35.417Z,15.52
2023-05-19T08:19:35.443Z,15.58
2023-05-19T08:20:35.580Z,15.68
2023-05-19T08:21:35.401Z,15.83
2023-05-19T08:22:35.406Z,16.01
2023-05-19T08:23:35.382Z,16.10
2023-05-19T08:24:35.439Z,16.24
2023-05-19T08:25:35.383Z,16.29
2023-05-19T08:26:37.621Z,16.15
2023-05-19T08:27:36.354Z,16.29
2023-05-19T08:28:35.340Z,16.31
2023-05-19T08:29:35.403Z,16.46
2023-05-19T08:30:35.388Z,16.69
2023-05-19T08:31:35.372Z,16.87
2023-05-19T08:32:35.343Z,17.01
2023-05-19T08:33:35.324Z,17.19
2023-05-19T08:34:35.328Z,17.12
2023-05-19T08:35:35.308Z,17.16
2023-05-19T08:36:35.296Z,17.12
2023-05-19T08:37:35.286Z,16.84
2023-05-19T08:38:35.310Z,16.84
2023-05-19T08:39:35.283Z,16.89
2023-05-19T08:40:35.358Z,17.11
2023-05-19T08:41:35.274Z,17.23
2023-05-19T08:42:35.249Z,17.27
2023-05-19T08:43:35.265Z,17.46
2023-05-19T08:44:35.257Z,17.33
2023-05-19T08:45:35.327Z,17.26
2023-05-19T08:46:35.249Z,17.45
2023-05-19T08:47:35.260Z,17.70
2023-05-19T08:48:35.226Z,17.85
2023-05-19T08:49:35.205Z,18.01
2023-05-19T08:50:35.319Z,18.07
2023-05-19T08:51:35.194Z,17.94
2023-05-19T08:52:35.203Z,17.68
2023-05-19T08:53:35.174Z,17.68
2023-05-19T08:54:35.176Z,17.86
2023-05-19T08:55:35.351Z,18.05
2023-05-19T08:56:35.154Z,18.13
2023-05-19T08:57:35.161Z,18.16
2023-05-19T08:58:35.130Z,18.26
2023-05-19T08:59:35.122Z,18.16
2023-05-19T09:00:35.503Z,18.13
2023-05-19T09:02:35.128Z,18.10
2023-05-19T09:03:35.156Z,18.03
2023-05-19T09:04:35.223Z,18.08
2023-05-19T09:05:35.378Z,18.38
2023-05-19T09:06:35.118Z,18.50
2023-05-19T09:07:35.082Z,18.56
2023-05-19T09:08:35.121Z,18.53
2023-05-19T09:09:35.069Z,18.62
2023-05-19T09:10:35.065Z,18.68
2023-05-19T09:11:35.071Z,18.89
2023-05-19T09:12:35.060Z,18.86
2023-05-19T09:13:35.036Z,18.74
2023-05-19T09:14:35.033Z,18.90
2023-05-19T09:15:35.269Z,18.66
2023-05-19T09:16:35.053Z,18.88
2023-05-19T09:17:35.038Z,18.92
2023-05-19T09:18:35.032Z,19.02
2023-05-19T09:19:35.079Z,19.18
2023-05-19T09:20:35.045Z,18.95
2023-05-19T09:21:34.982Z,18.81
2023-05-19T09:22:34.985Z,18.83
2023-05-19T09:23:34.948Z,18.70
2023-05-19T09:24:35.031Z,18.75
2023-05-19T09:25:36.066Z,18.81
2023-05-19T09:26:35.041Z,19.04
2023-05-19T09:27:34.962Z,19.26
2023-05-19T09:28:34.936Z,19.41
2023-05-19T09:29:34.981Z,19.27
2023-05-19T09:30:34.949Z,19.26
2023-05-19T09:31:34.966Z,18.84
2023-05-19T09:32:34.921Z,18.65
2023-05-19T09:33:34.964Z,18.78
2023-05-19T09:34:34.918Z,18.88
2023-05-19T09:35:35.221Z,19.00
2023-05-19T09:36:34.864Z,19.15
2023-05-19T09:37:34.865Z,19.09
2023-05-19T09:38:34.848Z,19.27
2023-05-19T09:39:34.944Z,19.39
2023-05-19T09:40:34.852Z,19.27
2023-05-19T09:41:34.829Z,19.29
2023-05-19T09:42:34.994Z,19.67
2023-05-19T09:43:34.957Z,19.94
2023-05-19T09:44:34.959Z,19.92
2023-05-19T09:45:35.056Z,19.79
2023-05-19T09:46:35.022Z,20.04
2023-05-19T09:47:34.833Z,20.10
2023-05-19T09:48:34.825Z,19.96
2023-05-19T09:49:34.810Z,19.85
2023-05-19T09:50:34.777Z,19.95
2023-05-19T09:51:34.770Z,20.16
2023-05-19T09:52:34.747Z,20.43
2023-05-19T09:53:34.792Z,20.26
2023-05-19T09:54:34.742Z,20.24
2023-05-19T09:55:35.092Z,20.32
2023-05-19T09:56:34.800Z,20.40
2023-05-19T09:57:34.755Z,20.28
2023-05-19T09:58:34.794Z,20.28
2023-05-19T09:59:34.704Z,20.24
2023-05-19T10:00:35.118Z,20.03
2023-05-19T10:01:34.749Z,20.02
2023-05-19T10:02:34.766Z,19.81
2023-05-19T10:03:34.813Z,19.47
2023-05-19T10:04:34.700Z,18.99
2023-05-19T10:05:35.237Z,18.98
2023-05-19T10:06:34.697Z,18.80
2023-05-19T10:07:34.666Z,19.27
2023-05-19T10:08:34.660Z,19.21
2023-05-19T10:09:34.638Z,19.39
2023-05-19T10:10:34.614Z,19.47
2023-05-19T10:11:34.621Z,19.69
2023-05-19T10:12:34.623Z,19.48
2023-05-19T10:13:34.611Z,19.31
2023-05-19T10:14:34.595Z,19.08
2023-05-19T10:15:40.884Z,18.78
2023-05-19T10:16:36.638Z,19.18
2023-05-19T10:17:34.623Z,19.41
2023-05-19T10:18:34.603Z,19.19
2023-05-19T10:19:34.683Z,19.31
2023-05-19T10:20:34.749Z,19.58
2023-05-19T10:21:34.554Z,19.71
2023-05-19T10:22:34.538Z,20.00
2023-05-19T10:23:34.569Z,20.43
2023-05-19T10:24:34.539Z,20.84
2023-05-19T10:25:34.778Z,20.88
2023-05-19T10:26:34.546Z,21.36
2023-05-19T10:27:34.522Z,21.58
2023-05-19T10:28:34.491Z,22.02
2023-05-19T10:29:34.493Z,21.76
2023-05-19T10:30:34.621Z,22.28
2023-05-19T10:31:34.531Z,22.10
2023-05-19T10:32:34.600Z,21.51
2023-05-19T10:33:34.457Z,20.78
2023-05-19T10:34:34.449Z,20.90
2023-05-19T10:35:34.661Z,21.57
2023-05-19T10:36:34.424Z,22.36
2023-05-19T10:37:34.433Z,22.91
2023-05-19T10:38:34.434Z,23.39
2023-05-19T10:39:34.412Z,23.76
2023-05-19T10:40:34.427Z,23.74
2023-05-19T10:41:34.411Z,23.91
2023-05-19T10:42:34.391Z,24.28
2023-05-19T10:43:34.401Z,24.66
2023-05-19T10:44:34.416Z,24.24
2023-05-19T10:45:34.733Z,23.40
2023-05-19T10:46:34.443Z,23.18
2023-05-19T10:47:34.375Z,23.98
2023-05-19T10:48:34.340Z,24.06
2023-05-19T10:49:34.368Z,23.69
2023-05-19T10:50:34.392Z,23.76
2023-05-19T10:51:34.333Z,24.38
2023-05-19T10:52:34.321Z,24.68
2023-05-19T10:53:34.310Z,24.92
2023-05-19T10:54:34.364Z,24.70
2023-05-19T10:55:34.456Z,24.93
2023-05-19T10:56:34.348Z,24.81
2023-05-19T10:57:34.321Z,24.93
2023-05-19T10:58:34.302Z,25.48
2023-05-19T10:59:34.320Z,25.40
2023-05-19T11:00:34.275Z,25.21
2023-05-19T11:01:34.315Z,24.24
2023-05-19T11:02:34.297Z,24.29
2023-05-19T11:03:34.296Z,24.57
2023-05-19T11:04:34.302Z,25.17
2023-05-19T11:05:34.489Z,25.01
2023-05-19T11:06:34.231Z,24.42
2023-05-19T11:07:34.232Z,24.11
2023-05-19T11:08:34.227Z,23.65
2023-05-19T11:09:39.987Z,23.05
2023-05-19T11:10:36.258Z,23.62
2023-05-19T11:11:34.888Z,24.53
2023-05-19T11:12:34.195Z,23.81
2023-05-19T11:13:34.201Z,23.44
2023-05-19T11:14:34.183Z,22.91
2023-05-19T11:15:34.387Z,22.20
2023-05-19T11:16:34.324Z,21.75
2023-05-19T11:17:35.070Z,21.32
2023-05-19T11:18:34.155Z,21.00
2023-05-19T11:19:34.138Z,20.99
2023-05-19T11:20:34.143Z,20.90
2023-05-19T11:21:34.254Z,21.18
2023-05-19T11:22:35.037Z,21.48
2023-05-19T11:23:35.505Z,21.50
2023-05-19T11:24:34.117Z,21.32
2023-05-19T11:25:34.177Z,22.59
2023-05-19T11:26:34.105Z,23.43
2023-05-19T11:27:34.100Z,24.58
2023-05-19T11:28:34.108Z,25.35
2023-05-19T11:29:34.914Z,25.58
2023-05-19T11:30:35.221Z,25.48
2023-05-19T11:31:34.200Z,25.50
2023-05-19T11:32:34.123Z,25.70
2023-05-19T11:33:34.031Z,25.14
2023-05-19T11:34:34.034Z,25.54
2023-05-19T11:35:36.005Z,25.51
2023-05-19T11:36:35.067Z,25.31
2023-05-19T11:37:34.013Z,25.46
2023-05-19T11:38:33.997Z,25.91
2023-05-19T11:39:34.020Z,25.72
2023-05-19T11:40:34.029Z,24.58
2023-05-19T11:41:33.997Z,24.03
2023-05-19T11:42:33.971Z,23.39
2023-05-19T11:43:34.982Z,23.68
2023-05-19T11:44:33.974Z,24.13
2023-05-19T11:45:34.142Z,24.40
2023-05-19T11:46:33.968Z,25.01
2023-05-19T11:47:42.016Z,25.83
2023-05-19T11:48:36.093Z,25.84
2023-05-19T11:49:33.985Z,26.15
2023-05-19T11:50:33.979Z,25.99
2023-05-19T11:51:33.930Z,26.10
2023-05-19T11:52:33.906Z,26.74
2023-05-19T11:53:35.244Z,26.28
2023-05-19T11:54:34.930Z,26.70
2023-05-19T11:55:34.027Z,25.73
2023-05-19T11:56:33.921Z,24.88
2023-05-19T11:57:33.874Z,24.61
2023-05-19T11:58:33.867Z,23.88
2023-05-19T11:59:35.854Z,23.05
2023-05-19T12:00:34.868Z,22.59
2023-05-19T12:01:33.838Z,22.25
2023-05-19T12:02:33.947Z,22.15
2023-05-19T12:03:33.915Z,21.91
2023-05-19T12:04:33.876Z,21.92
2023-05-19T12:05:39.958Z,21.96
2023-05-19T12:06:36.030Z,22.69
2023-05-19T12:07:33.798Z,22.96
2023-05-19T12:08:33.800Z,22.80
2023-05-19T12:09:33.809Z,23.41
2023-05-19T12:10:33.814Z,24.05
2023-05-19T12:11:33.817Z,24.58
2023-05-19T12:12:33.759Z,24.55
2023-05-19T12:13:34.802Z,24.73
2023-05-19T12:14:33.885Z,24.47
2023-05-19T12:15:34.082Z,24.38
2023-05-19T12:16:33.771Z,24.38
2023-05-19T12:17:33.763Z,24.30
2023-05-19T12:18:33.753Z,24.10
2023-05-19T12:19:33.706Z,24.03
2023-05-19T12:20:33.893Z,24.24
2023-05-19T12:21:34.456Z,24.53
2023-05-19T12:22:33.685Z,24.55
2023-05-19T12:23:33.705Z,24.66
2023-05-19T12:24:33.675Z,25.14
2023-05-19T12:25:33.884Z,24.02
2023-05-19T12:26:33.655Z,23.27
2023-05-19T12:27:56.040Z,23.08
2023-05-19T12:28:34.650Z,22.94
2023-05-19T12:29:33.656Z,22.91
2023-05-19T12:30:34.737Z,22.96
2023-05-19T12:31:33.703Z,22.69
2023-05-19T12:32:33.650Z,22.90
2023-05-19T12:33:34.910Z,22.38
2023-05-19T12:34:33.609Z,23.56
2023-05-19T12:35:33.669Z,24.24
2023-05-19T12:36:33.623Z,24.14
2023-05-19T12:37:33.750Z,23.59
2023-05-19T12:38:33.590Z,24.26
2023-05-19T12:39:33.569Z,23.73
2023-05-19T12:40:33.959Z,23.55
2023-05-19T12:41:33.630Z,23.43
2023-05-19T12:42:33.565Z,23.58
2023-05-19T12:43:33.561Z,24.13
2023-05-19T12:44:33.579Z,24.85
2023-05-19T12:45:33.580Z,25.55
2023-05-19T12:46:33.590Z,25.31
2023-05-19T12:47:33.563Z,24.51
2023-05-19T12:48:33.529Z,24.39
2023-05-19T12:49:33.509Z,24.96
2023-05-19T12:50:33.683Z,25.25
2023-05-19T12:51:33.517Z,25.41
2023-05-19T12:52:33.503Z,25.75
2023-05-19T12:53:33.562Z,25.58
2023-05-19T12:54:33.490Z,25.33
2023-05-19T12:55:33.491Z,26.16
2023-05-19T12:56:33.452Z,27.12
2023-05-19T12:57:33.459Z,27.21
2023-05-19T12:58:33.474Z,27.10
2023-05-19T12:59:54.937Z,26.92
2023-05-19T13:00:35.734Z,27.07
2023-05-19T13:01:33.432Z,27.27
2023-05-19T13:02:33.465Z,27.73
2023-05-19T13:03:33.459Z,27.92
2023-05-19T13:04:33.439Z,27.48